Time;durP1;ratioP1;P1;durP2;ratioP2;P2;SDS_P1;SDS_P2;PMS_P1;PMS_P2;Temp;Humidity;BMP_temperature;BMP_pressure;BME280_temperature;BME280_humidity;BME280_pressure;Samples;Min_cycle;Max_cycle;Signal;HPM_P1;HPM_P2
2023/11/28 00:01:04;;;;;;;2.08;1.85;;;;;;;2.95;87.88;99333.72;4979785;28;20039;-72
2023/11/28 00:03:30;;;;;;;0.77;0.77;;;;;;;3.05;87.32;99330.59;4979293;28;20390;-72
2023/11/28 00:05:55;;;;;;;0.52;0.52;;;;;;;3.00;86.82;99335.38;4978777;28;20049;-72
2023/11/28 00:08:21;;;;;;;0.80;0.80;;;;;;;2.88;87.37;99333.53;4977493;28;20037;-73
2023/11/28 00:10:49;;;;;;;2.60;1.15;;;;;;;2.95;87.62;99341.72;4961851;28;20101;-71
2023/11/28 00:13:17;;;;;;;1.10;0.95;;;;;;;3.01;87.66;99337.69;4973698;28;20026;-73
2023/11/28 00:15:43;;;;;;;1.17;1.08;;;;;;;2.92;87.89;99339.72;4971456;28;20037;-72
2023/11/28 00:18:08;;;;;;;2.08;1.50;;;;;;;3.02;87.27;99341.16;4957651;28;20034;-72
2023/11/28 00:20:34;;;;;;;0.85;0.85;;;;;;;2.63;88.08;99332.03;4958150;28;20031;-73
2023/11/28 00:22:59;;;;;;;0.30;0.30;;;;;;;2.81;88.17;99332.56;4954571;28;20493;-73
2023/11/28 00:25:25;;;;;;;3.97;1.15;;;;;;;2.89;87.86;99328.97;4975087;28;20081;-73
2023/11/28 00:27:50;;;;;;;1.98;1.38;;;;;;;2.88;87.84;99333.53;4955611;28;20039;-72
2023/11/28 00:30:16;;;;;;;1.15;1.00;;;;;;;2.91;87.87;99332.84;4941349;28;20049;-73
2023/11/28 00:32:43;;;;;;;2.17;1.15;;;;;;;2.73;88.08;99326.25;4959532;28;20153;-73
2023/11/28 00:35:09;;;;;;;2.40;1.15;;;;;;;2.81;88.24;99338.63;4958724;28;20034;-72
2023/11/28 00:37:35;;;;;;;0.65;0.65;;;;;;;2.81;87.85;99343.94;4957151;28;20038;-72
2023/11/28 00:40:04;;;;;;;0.73;0.65;;;;;;;2.86;87.30;99348.25;4943613;28;20418;-73
2023/11/28 00:42:29;;;;;;;2.67;0.88;;;;;;;2.89;87.70;99342.25;4945629;28;20053;-73
2023/11/28 00:44:55;;;;;;;2.00;1.33;;;;;;;2.98;87.33;99343.69;4943417;28;20118;-73
2023/11/28 00:47:21;;;;;;;0.82;0.60;;;;;;;2.86;87.20;99346.38;4964586;28;20022;-73
2023/11/28 00:49:47;;;;;;;0.75;0.75;;;;;;;2.86;87.21;99349.03;4978930;28;20038;-73
2023/11/28 00:52:12;;;;;;;1.20;1.00;;;;;;;2.91;87.15;99343.47;4982238;28;20022;-73
2023/11/28 00:54:38;;;;;;;3.70;1.60;;;;;;;2.85;87.12;99344.81;4958240;28;20023;-72
2023/11/28 00:57:07;;;;;;;2.67;1.20;;;;;;;2.72;87.54;99359.25;4943240;28;20086;-73
2023/11/28 00:59:33;;;;;;;1.13;1.00;;;;;;;2.74;87.49;99346.41;4976067;28;20122;-73
2023/11/28 01:02:06;;;;;;;1.30;1.20;;;;;;;2.75;87.74;99353.25;4961292;28;20035;-72
2023/11/28 01:04:32;;;;;;;1.70;1.08;;;;;;;2.77;87.26;99348.38;4975657;28;20089;-73
2023/11/28 01:06:58;;;;;;;0.90;0.77;;;;;;;2.72;87.16;99356.59;4960265;28;20038;-73
2023/11/28 01:09:24;;;;;;;0.75;0.65;;;;;;;2.67;87.73;99354.94;4981167;28;20433;-72
2023/11/28 01:11:50;;;;;;;0.80;0.50;;;;;;;2.78;87.23;99354.47;4972108;28;20481;-73
2023/11/28 01:14:17;;;;;;;1.67;0.93;;;;;;;2.75;86.88;99355.91;4972372;28;20402;-73
2023/11/28 01:16:46;;;;;;;0.75;0.60;;;;;;;2.65;87.25;99353.72;4973497;28;20516;-73
2023/11/28 01:19:12;;;;;;;0.88;0.75;;;;;;;2.55;87.60;99362.16;4973066;28;20541;-73
2023/11/28 01:21:38;;;;;;;0.63;0.60;;;;;;;2.48;87.77;99364.56;4973646;28;20035;-73
2023/11/28 01:24:03;;;;;;;4.95;1.15;;;;;;;2.43;88.17;99370.13;4958795;28;20019;-73
2023/11/28 01:26:29;;;;;;;1.42;1.30;;;;;;;2.48;88.43;99377.84;4972554;28;20050;-73
2023/11/28 01:28:54;;;;;;;2.38;0.52;;;;;;;2.47;88.74;99371.00;4959569;28;20035;-73
2023/11/28 01:31:27;;;;;;;0.70;0.70;;;;;;;2.50;88.68;99373.75;4972350;28;20504;-73
2023/11/28 01:33:53;;;;;;;0.93;0.93;;;;;;;2.46;88.50;99372.88;4978683;28;20034;-73
2023/11/28 01:36:19;;;;;;;1.25;1.05;;;;;;;2.55;88.56;99383.41;4973428;28;20109;-73
2023/11/28 01:38:45;;;;;;;1.45;1.10;;;;;;;2.51;88.14;99387.81;4972393;28;20406;-73
2023/11/28 01:41:10;;;;;;;0.80;0.80;;;;;;;2.40;88.80;99384.81;4972107;28;20034;-73
2023/11/28 01:43:36;;;;;;;0.35;0.35;;;;;;;2.56;88.32;99390.25;4965346;28;20544;-73
2023/11/28 01:46:07;;;;;;;0.65;0.60;;;;;;;2.50;88.56;99383.59;4971048;28;20038;-73
2023/11/28 01:48:32;;;;;;;;;;;;;;;2.51;88.81;99385.94;4975709;28;20031;-73
2023/11/28 01:50:58;;;;;;;0.20;0.20;;;;;;;2.47;88.67;99393.03;4971889;28;19914;-73
2023/11/28 01:53:24;;;;;;;0.43;0.43;;;;;;;2.41;88.87;99393.56;4972281;28;20026;-73
2023/11/28 01:55:51;;;;;;;0.52;0.50;;;;;;;2.35;89.49;99390.38;4974333;28;20453;-72
2023/11/28 01:58:17;;;;;;;1.48;1.15;;;;;;;2.37;89.34;99395.34;4977075;28;20035;-73
2023/11/28 02:00:44;;;;;;;0.63;0.63;;;;;;;2.33;89.37;99397.88;4973913;28;20033;-73
2023/11/28 02:03:12;;;;;;;0.45;0.45;;;;;;;2.33;89.14;99392.56;4971897;28;20145;-73
2023/11/28 02:05:37;;;;;;;0.50;0.50;;;;;;;2.29;89.58;99391.69;4955948;28;20030;-73
2023/11/28 02:08:06;;;;;;;0.47;0.47;;;;;;;2.36;89.64;99399.88;4971603;28;20090;-73
2023/11/28 02:10:35;;;;;;;0.65;0.65;;;;;;;2.25;89.92;99395.31;4986504;28;20417;-73
2023/11/28 02:13:03;;;;;;;0.30;0.30;;;;;;;2.29;89.65;99399.66;4973599;28;20062;-73
2023/11/28 02:15:43;;;;;;;0.75;0.52;;;;;;;2.25;89.68;99397.97;4978464;28;20038;-73
2023/11/28 02:18:09;;;;;;;0.68;0.57;;;;;;;2.34;89.86;99396.00;4969936;28;20581;-73
2023/11/28 02:20:39;;;;;;;0.40;0.40;;;;;;;2.28;89.11;99399.97;4972394;28;20065;-73
2023/11/28 02:23:09;;;;;;;0.45;0.45;;;;;;;2.40;89.21;99397.34;4970757;28;20114;-73
2023/11/28 02:25:46;;;;;;;1.20;0.70;;;;;;;2.35;88.53;99400.19;4969099;28;20078;-73
2023/11/28 02:28:23;;;;;;;0.65;0.65;;;;;;;2.42;88.66;99401.19;4969797;28;21215;-73
2023/11/28 02:30:49;;;;;;;0.75;0.75;;;;;;;2.34;88.56;99396.00;4964852;28;20038;-73
2023/11/28 02:33:16;;;;;;;0.90;0.60;;;;;;;2.34;88.23;99398.66;4971708;28;20450;-73
2023/11/28 02:35:42;;;;;;;0.75;0.65;;;;;;;2.22;88.68;99401.31;4971302;28;20030;-73
2023/11/28 02:38:08;;;;;;;6.03;0.70;;;;;;;2.20;88.42;99403.50;4977474;28;20052;-73
2023/11/28 02:40:34;;;;;;;1.20;1.08;;;;;;;2.22;88.78;99410.06;4977124;28;20109;-73
2023/11/28 02:42:59;;;;;;;0.70;0.70;;;;;;;2.26;88.95;99404.84;4962947;28;20030;-72
2023/11/28 02:45:25;;;;;;;1.55;0.77;;;;;;;2.09;89.00;99405.06;4952639;28;20027;-73
2023/11/28 02:47:50;;;;;;;0.93;0.75;;;;;;;2.20;88.50;99408.81;4956270;28;20030;-73
2023/11/28 02:50:16;;;;;;;1.15;0.80;;;;;;;2.23;88.19;99414.25;4969232;28;20121;-73
2023/11/28 02:52:41;;;;;;;1.13;0.65;;;;;;;2.23;88.07;99416.13;4970647;28;20180;-73
2023/11/28 02:55:10;;;;;;;5.43;1.15;;;;;;;2.21;88.17;99420.97;4969568;28;20497;-73
2023/11/28 02:57:35;;;;;;;0.57;0.57;;;;;;;2.20;88.11;99414.13;4971667;28;20077;-73
2023/11/28 03:00:01;;;;;;;0.90;0.90;;;;;;;2.18;88.33;99416.34;4975114;28;20445;-73
2023/11/28 03:02:29;;;;;;;0.90;0.90;;;;;;;2.14;88.45;99404.81;4955853;28;20034;-72
2023/11/28 03:04:57;;;;;;;2.42;1.17;;;;;;;2.12;88.19;99413.13;4974087;28;20034;-73
2023/11/28 03:07:23;;;;;;;0.70;0.70;;;;;;;2.16;88.41;99407.94;4976154;28;20058;-73
2023/11/28 03:09:48;;;;;;;1.02;0.60;;;;;;;2.20;88.28;99409.59;4973071;28;20096;-73
2023/11/28 03:12:14;;;;;;;0.52;0.52;;;;;;;2.24;87.53;99407.84;4971263;28;20077;-73
2023/11/28 03:14:41;;;;;;;0.57;0.43;;;;;;;2.26;87.48;99410.94;4973000;28;20094;-73
2023/11/28 03:17:07;;;;;;;0.32;0.32;;;;;;;2.12;87.92;99413.13;4974977;28;20121;-73
2023/11/28 03:19:32;;;;;;;0.85;0.70;;;;;;;2.15;88.14;99414.34;4972461;28;20134;-73
2023/11/28 03:21:58;;;;;;;0.63;0.63;;;;;;;2.09;87.98;99418.31;4970088;28;20106;-73
2023/11/28 03:24:24;;;;;;;1.27;0.77;;;;;;;2.17;87.89;99415.56;4974444;28;20464;-71
2023/11/28 03:26:49;;;;;;;1.13;0.80;;;;;;;2.09;87.67;99408.47;4974681;28;20078;-74
2023/11/28 03:29:15;;;;;;;5.55;0.70;;;;;;;2.15;87.70;99409.03;4975020;28;20057;-73
2023/11/28 03:31:40;;;;;;;0.52;0.52;;;;;;;2.24;87.67;99410.50;4970754;28;20514;-73
2023/11/28 03:34:06;;;;;;;0.60;0.60;;;;;;;2.26;87.68;99415.47;4960693;28;20030;-73
2023/11/28 03:36:31;;;;;;;0.70;0.70;;;;;;;2.31;87.34;99417.91;4958462;28;20053;-72
2023/11/28 03:38:57;;;;;;;0.43;0.43;;;;;;;2.32;86.99;99414.16;4974525;28;20034;-73
2023/11/28 03:41:22;;;;;;;0.57;0.57;;;;;;;2.31;86.93;99424.00;4973097;28;20469;-73
2023/11/28 03:43:48;;;;;;;1.02;0.95;;;;;;;2.34;86.97;99415.34;4973167;28;20482;-73
2023/11/28 03:46:14;;;;;;;1.85;0.70;;;;;;;2.37;86.67;99422.69;4968292;28;20034;-73
2023/11/28 03:48:39;;;;;;;0.65;0.60;;;;;;;2.39;85.91;99427.66;4972305;28;20045;-73
2023/11/28 03:51:11;;;;;;;0.45;0.43;;;;;;;2.33;86.27;99429.75;4972921;28;20019;-73
2023/11/28 03:53:37;;;;;;;0.82;0.63;;;;;;;2.29;86.01;99428.06;4966942;28;20019;-73
2023/11/28 03:56:07;;;;;;;0.52;0.52;;;;;;;2.28;86.31;99431.84;4970563;28;20113;-73
2023/11/28 03:58:33;;;;;;;0.40;0.40;;;;;;;2.22;86.80;99436.59;4965952;28;20031;-73
2023/11/28 04:01:02;;;;;;;0.70;0.70;;;;;;;2.19;87.05;99445.22;4972484;28;20038;-73
2023/11/28 04:03:28;;;;;;;0.47;0.45;;;;;;;2.14;87.68;99436.69;4973382;28;20034;-73
2023/11/28 04:05:57;;;;;;;0.50;0.50;;;;;;;2.22;87.93;99438.47;4970910;28;20093;-73
2023/11/28 04:08:23;;;;;;;0.40;0.40;;;;;;;2.18;87.39;99440.22;4949223;28;20030;-72
2023/11/28 04:10:49;;;;;;;0.57;0.57;;;;;;;2.20;87.59;99441.47;4971422;28;20042;-72
2023/11/28 04:13:15;;;;;;;0.38;0.38;;;;;;;2.19;87.70;99444.44;4972067;28;20113;-73
2023/11/28 04:15:41;;;;;;;0.63;0.63;;;;;;;2.08;88.62;99459.22;4964893;28;20041;-73
2023/11/28 04:18:11;;;;;;;0.70;0.70;;;;;;;2.05;89.09;99457.25;4967919;28;20061;-73
2023/11/28 04:20:37;;;;;;;0.90;0.65;;;;;;;2.13;89.47;99459.03;4968018;28;20042;-73
2023/11/28 04:23:03;;;;;;;0.50;0.50;;;;;;;2.13;89.53;99459.03;4955121;28;20089;-73
2023/11/28 04:25:29;;;;;;;0.82;0.55;;;;;;;2.08;90.12;99461.88;4971719;28;20049;-73
2023/11/28 04:27:58;;;;;;;0.93;0.93;;;;;;;2.06;91.42;99462.22;4960904;28;20030;-73
2023/11/28 04:30:24;;;;;;;0.30;0.30;;;;;;;2.12;91.24;99466.22;4958684;28;20383;-74
2023/11/28 04:32:50;;;;;;;0.70;0.63;;;;;;;2.07;91.53;99469.06;4976025;28;20046;-74
2023/11/28 04:35:15;;;;;;;1.05;0.98;;;;;;;2.14;91.80;99455.25;4972386;28;20592;-74
2023/11/28 04:37:42;;;;;;;0.57;0.57;;;;;;;2.11;91.98;99458.59;4970131;28;20047;-73
2023/11/28 04:40:07;;;;;;;2.72;0.90;;;;;;;2.10;92.24;99462.34;4973804;28;20119;-74
2023/11/28 04:42:33;;;;;;;0.50;0.50;;;;;;;2.11;92.13;99463.91;4973759;28;20521;-74
2023/11/28 04:44:59;;;;;;;0.50;0.45;;;;;;;2.14;92.61;99463.22;4974190;28;20038;-74
2023/11/28 04:47:25;;;;;;;1.08;0.65;;;;;;;2.13;92.01;99472.31;4974188;28;20039;-74
2023/11/28 04:49:50;;;;;;;1.55;0.77;;;;;;;2.11;92.28;99471.84;4979241;28;20038;-74
2023/11/28 04:52:15;;;;;;;0.50;0.50;;;;;;;2.11;92.41;99472.63;4979638;28;20429;-74
2023/11/28 04:54:41;;;;;;;0.85;0.85;;;;;;;2.10;92.65;99475.59;4976722;28;20038;-74
2023/11/28 04:57:07;;;;;;;1.55;0.80;;;;;;;2.02;93.88;99485.22;4979279;28;20056;-73
2023/11/28 04:59:32;;;;;;;1.40;1.35;;;;;;;2.15;93.04;99486.03;4964137;28;20022;-74
2023/11/28 05:01:58;;;;;;;0.30;0.30;;;;;;;2.18;93.35;99482.72;4992134;28;20062;-74
2023/11/28 05:04:24;;;;;;;1.25;1.17;;;;;;;2.08;92.96;99477.81;4975677;28;20035;-73
2023/11/28 05:06:50;;;;;;;0.57;0.57;;;;;;;2.04;93.87;99487.53;4980111;28;20045;-74
2023/11/28 05:09:20;;;;;;;0.98;0.50;;;;;;;2.09;93.96;99482.03;4959507;28;20031;-73
2023/11/28 05:11:46;;;;;;;0.63;0.50;;;;;;;2.07;94.72;99486.88;4973341;28;20026;-74
2023/11/28 05:14:11;;;;;;;1.02;0.68;;;;;;;1.83;95.33;99490.22;4959905;28;20045;-74
2023/11/28 05:16:37;;;;;;;0.30;0.30;;;;;;;2.03;95.17;99491.28;4970943;28;20038;-74
2023/11/28 05:19:02;;;;;;;1.08;1.00;;;;;;;2.02;95.61;99487.06;4969087;28;20037;-74
2023/11/28 05:21:29;;;;;;;0.65;0.55;;;;;;;2.17;95.13;99494.44;4955451;28;20041;-75
2023/11/28 05:23:57;;;;;;;0.75;0.68;;;;;;;2.24;94.33;99494.69;4963259;28;20030;-74
2023/11/28 05:26:23;;;;;;;1.00;0.77;;;;;;;2.19;94.80;99500.22;4956785;28;20035;-75
2023/11/28 05:28:48;;;;;;;1.08;1.02;;;;;;;2.10;95.09;99494.19;4974231;28;20023;-75
2023/11/28 05:31:14;;;;;;;0.95;0.88;;;;;;;2.27;95.24;99500.09;4980419;28;20093;-74
2023/11/28 05:33:40;;;;;;;0.82;0.82;;;;;;;2.24;94.93;99494.69;4974763;28;20445;-74
2023/11/28 05:36:08;;;;;;;2.15;0.43;;;;;;;2.26;94.35;99509.19;4960697;28;20425;-74
2023/11/28 05:38:34;;;;;;;1.30;0.77;;;;;;;2.30;94.00;99502.13;4977948;28;20057;-74
2023/11/28 05:41:00;;;;;;;1.25;1.20;;;;;;;2.26;94.07;99508.41;4972146;28;20073;-74
2023/11/28 05:43:30;;;;;;;0.77;0.77;;;;;;;2.23;94.54;99509.03;4973648;28;20553;-74
2023/11/28 05:45:57;;;;;;;0.28;0.28;;;;;;;2.31;94.32;99514.28;4974001;28;20030;-74
2023/11/28 05:48:26;;;;;;;0.57;0.57;;;;;;;2.29;93.85;99515.69;4976838;28;20057;-74
2023/11/28 05:50:52;;;;;;;2.92;1.33;;;;;;;2.38;94.28;99509.19;4974467;28;20038;-73
2023/11/28 05:53:19;;;;;;;1.95;0.70;;;;;;;2.43;93.76;99524.16;4956641;28;20044;-74
2023/11/28 05:55:46;;;;;;;1.05;0.70;;;;;;;2.43;93.55;99518.84;4973667;28;20031;-74
2023/11/28 05:58:12;;;;;;;0.93;0.75;;;;;;;2.50;93.87;99511.09;4972866;28;20390;-74
2023/11/28 06:00:38;;;;;;;0.60;0.60;;;;;;;2.55;93.73;99524.19;4966491;28;20049;-74
2023/11/28 06:03:07;;;;;;;1.45;0.85;;;;;;;2.66;93.14;99507.50;4971705;28;20039;-74
2023/11/28 06:05:34;;;;;;;1.02;1.02;;;;;;;2.74;92.69;99519.13;4952111;28;20035;-74
2023/11/28 06:08:01;;;;;;;1.42;1.27;;;;;;;2.61;92.55;99518.31;4973820;28;20088;-74
2023/11/28 06:10:27;;;;;;;0.73;0.73;;;;;;;2.55;92.59;99526.84;4956677;28;20117;-74
2023/11/28 06:12:56;;;;;;;0.70;0.65;;;;;;;2.63;91.69;99528.66;4981279;28;20026;-74
2023/11/28 06:15:22;;;;;;;1.13;1.00;;;;;;;2.37;91.91;99536.88;4955138;28;20096;-73
2023/11/28 06:17:48;;;;;;;1.05;0.95;;;;;;;2.41;91.60;99535.13;4972727;28;20038;-73
2023/11/28 06:20:16;;;;;;;1.40;1.13;;;;;;;2.32;92.01;99542.38;4970830;28;20419;-73
2023/11/28 06:22:45;;;;;;;1.05;0.40;;;;;;;2.36;92.06;99537.22;4972356;28;20088;-73
2023/11/28 06:25:11;;;;;;;0.55;0.55;;;;;;;2.28;92.18;99535.41;4977747;28;20022;-73
2023/11/28 06:27:37;;;;;;;0.60;0.60;;;;;;;2.37;92.24;99533.44;4972277;28;20034;-73
2023/11/28 06:30:04;;;;;;;0.88;0.70;;;;;;;2.33;91.84;99545.81;4969454;28;20551;-72
2023/11/28 06:32:31;;;;;;;1.77;1.08;;;;;;;2.34;92.48;99545.47;4975898;28;20493;-73
2023/11/28 06:35:00;;;;;;;0.68;0.68;;;;;;;2.31;92.23;99548.03;4970974;28;20042;-74
2023/11/28 06:37:25;;;;;;;0.60;0.60;;;;;;;2.20;92.41;99558.28;4957788;28;20039;-74
2023/11/28 06:39:51;;;;;;;1.02;0.88;;;;;;;2.33;92.04;99543.94;4957747;28;20041;-73
2023/11/28 06:42:19;;;;;;;1.23;0.93;;;;;;;2.27;91.27;99555.09;4979808;28;20043;-74
2023/11/28 06:44:44;;;;;;;0.65;0.65;;;;;;;2.23;92.13;99554.19;4974183;28;20506;-73
2023/11/28 06:47:10;;;;;;;0.63;0.63;;;;;;;2.16;91.92;99559.25;4976987;28;20128;-74
2023/11/28 06:49:35;;;;;;;1.23;0.90;;;;;;;2.18;92.14;99563.16;4954049;28;20031;-74
2023/11/28 06:52:02;;;;;;;1.13;1.08;;;;;;;2.24;92.48;99575.13;4967631;28;20494;-74
2023/11/28 06:54:28;;;;;;;0.85;0.70;;;;;;;2.31;92.44;99578.00;4970084;28;20039;-73
2023/11/28 06:56:54;;;;;;;0.85;0.70;;;;;;;2.23;92.69;99584.16;4962770;28;20118;-73
2023/11/28 06:59:20;;;;;;;1.15;0.77;;;;;;;2.41;93.09;99587.44;4972369;28;20079;-74
2023/11/28 07:01:48;;;;;;;1.27;1.08;;;;;;;2.40;93.09;99577.94;4970404;28;20038;-74
2023/11/28 07:04:14;;;;;;;0.50;0.50;;;;;;;2.42;93.02;99571.19;4972298;28;20042;-74
2023/11/28 07:06:39;;;;;;;0.88;0.85;;;;;;;2.49;93.00;99581.28;4970936;28;20118;-74
2023/11/28 07:09:05;;;;;;;2.28;1.30;;;;;;;2.59;92.63;99584.28;4952842;28;20078;-74
2023/11/28 07:11:30;;;;;;;1.15;0.88;;;;;;;2.56;92.25;99587.63;4957490;28;20045;-73
2023/11/28 07:14:00;;;;;;;4.13;1.13;;;;;;;2.65;92.82;99588.31;4978619;28;20065;-74
2023/11/28 07:16:26;;;;;;;1.20;1.15;;;;;;;2.58;92.23;99592.59;4969213;28;20121;-74
2023/11/28 07:18:51;;;;;;;0.73;0.73;;;;;;;2.59;92.33;99597.56;4975879;28;20098;-74
2023/11/28 07:21:20;;;;;;;3.83;1.30;;;;;;;2.53;92.19;99582.97;4942968;28;20035;-74
2023/11/28 07:23:46;;;;;;;0.73;0.73;;;;;;;2.48;92.63;99585.81;4947459;28;20038;-73
2023/11/28 07:26:13;;;;;;;1.75;1.65;;;;;;;2.58;92.01;99589.94;4941402;28;20058;-73
2023/11/28 07:28:40;;;;;;;0.80;0.80;;;;;;;2.51;92.28;99585.19;4948592;28;20054;-72
2023/11/28 07:31:06;;;;;;;2.45;1.08;;;;;;;2.68;91.67;99600.16;4958392;28;20081;-74
2023/11/28 07:33:31;;;;;;;1.20;1.10;;;;;;;2.62;91.52;99599.59;4957648;28;20058;-74
2023/11/28 07:35:59;;;;;;;2.05;1.02;;;;;;;2.62;91.54;99609.44;4957337;28;20043;-74
2023/11/28 07:38:25;;;;;;;0.60;0.60;;;;;;;2.72;91.19;99603.72;4973538;28;20070;-74
2023/11/28 07:40:51;;;;;;;0.77;0.77;;;;;;;2.72;91.03;99612.47;4958021;28;20609;-74
2023/11/28 07:43:16;;;;;;;2.92;1.50;;;;;;;2.67;90.75;99603.94;4974681;28;20130;-73
2023/11/28 07:45:42;;;;;;;0.95;0.95;;;;;;;2.61;90.91;99616.63;4973012;28;20118;-74
2023/11/28 07:48:08;;;;;;;0.63;0.63;;;;;;;2.66;90.90;99615.66;4972921;28;20092;-74
2023/11/28 07:50:34;;;;;;;2.67;1.13;;;;;;;2.69;90.23;99618.44;4953748;28;20494;-73
2023/11/28 07:53:00;;;;;;;0.73;0.70;;;;;;;2.63;89.42;99616.31;4964290;28;20034;-74
2023/11/28 07:55:25;;;;;;;1.23;1.15;;;;;;;2.54;89.65;99620.91;4975050;28;20106;-74
2023/11/28 07:57:51;;;;;;;0.63;0.63;;;;;;;2.77;89.66;99621.34;4940842;28;20126;-73
2023/11/28 08:00:20;;;;;;;2.22;1.05;;;;;;;2.77;88.50;99626.66;4939835;28;20035;-74
2023/11/28 08:02:46;;;;;;;2.30;1.00;;;;;;;2.83;88.56;99634.09;4958063;28;20486;-74
2023/11/28 08:05:11;;;;;;;0.77;0.77;;;;;;;2.81;88.96;99635.53;4982518;28;20085;-74
2023/11/28 08:07:37;;;;;;;1.33;1.23;;;;;;;2.75;89.04;99637.59;4975896;28;20066;-74
2023/11/28 08:10:05;;;;;;;1.10;0.75;;;;;;;2.82;88.78;99632.53;4980039;28;20541;-74
2023/11/28 08:12:31;;;;;;;0.68;0.65;;;;;;;2.80;88.78;99644.59;4975078;28;20031;-74
2023/11/28 08:14:57;;;;;;;0.80;0.75;;;;;;;2.78;88.85;99636.97;4976336;28;20490;-73
2023/11/28 08:17:22;;;;;;;0.93;0.93;;;;;;;2.92;88.81;99648.09;4970988;28;20122;-73
2023/11/28 08:19:50;;;;;;;0.98;0.90;;;;;;;2.94;88.63;99650.41;4978479;28;20113;-74
2023/11/28 08:22:17;;;;;;;1.00;0.90;;;;;;;2.98;88.26;99657.38;4979503;28;20061;-74
2023/11/28 08:24:43;;;;;;;0.80;0.80;;;;;;;2.90;88.08;99652.16;4983024;28;20390;-74
2023/11/28 08:27:09;;;;;;;0.98;0.93;;;;;;;3.03;87.94;99659.84;4982422;28;20042;-74
2023/11/28 08:29:34;;;;;;;0.98;0.98;;;;;;;3.01;87.21;99648.75;4980645;28;20038;-73
2023/11/28 08:32:03;;;;;;;2.47;0.88;;;;;;;2.97;87.24;99655.84;4979696;28;20406;-74
2023/11/28 08:34:28;;;;;;;0.90;0.75;;;;;;;3.09;87.84;99655.88;4981448;28;20461;-74
2023/11/28 08:36:53;;;;;;;1.17;0.70;;;;;;;3.15;87.97;99659.88;4986374;28;20042;-73
2023/11/28 08:39:23;;;;;;;1.58;1.30;;;;;;;3.11;86.81;99661.63;4961000;28;20026;-74
2023/11/28 08:41:48;;;;;;;0.77;0.77;;;;;;;3.12;86.42;99670.38;4970099;28;20100;-74
2023/11/28 08:44:14;;;;;;;0.75;0.75;;;;;;;3.08;86.25;99656.97;4974303;28;20070;-74
2023/11/28 08:46:39;;;;;;;1.35;1.08;;;;;;;3.13;86.75;99664.75;4979074;28;20089;-74
2023/11/28 08:49:05;;;;;;;0.60;0.60;;;;;;;2.99;86.44;99663.47;4963191;28;20084;-74
2023/11/28 08:51:30;;;;;;;0.70;0.70;;;;;;;3.17;86.30;99667.53;4959571;28;20066;-74
2023/11/28 08:53:56;;;;;;;0.50;0.50;;;;;;;3.26;85.80;99673.50;4982086;28;20022;-74
2023/11/28 08:56:23;;;;;;;1.52;0.90;;;;;;;3.34;86.29;99678.75;4956288;28;21689;-74
2023/11/28 08:58:49;;;;;;;0.65;0.65;;;;;;;3.45;85.95;99673.75;4977713;28;20039;-74
2023/11/28 09:01:14;;;;;;;1.30;1.20;;;;;;;3.42;85.91;99674.44;4948899;28;20041;-74
2023/11/28 09:03:40;;;;;;;1.63;1.08;;;;;;;3.40;85.35;99682.75;4959429;28;20085;-74
2023/11/28 09:06:07;;;;;;;0.50;0.50;;;;;;;3.55;84.87;99676.78;4964565;28;20083;-74
2023/11/28 09:08:33;;;;;;;0.82;0.70;;;;;;;3.45;84.81;99677.19;4979683;28;20035;-73
2023/11/28 09:10:58;;;;;;;1.90;0.98;;;;;;;3.52;84.74;99687.31;4985147;28;20041;-74
2023/11/28 09:13:24;;;;;;;0.95;0.93;;;;;;;3.50;85.08;99684.19;4976598;28;20540;-74
2023/11/28 09:15:49;;;;;;;0.60;0.60;;;;;;;3.47;84.47;99698.16;4957898;28;20586;-74
2023/11/28 09:18:15;;;;;;;0.88;0.82;;;;;;;3.50;84.60;99689.53;4956346;28;20026;-74
2023/11/28 09:20:40;;;;;;;1.08;0.82;;;;;;;3.60;84.36;99703.16;4955109;28;20122;-75
2023/11/28 09:23:08;;;;;;;0.80;0.80;;;;;;;3.61;84.39;99706.59;4960583;28;20042;-74
2023/11/28 09:25:34;;;;;;;1.33;1.05;;;;;;;3.61;84.67;99702.06;4978506;28;20775;-74
2023/11/28 09:28:00;;;;;;;0.98;0.80;;;;;;;3.61;83.90;99711.91;4943292;28;20093;-74
2023/11/28 09:30:25;;;;;;;0.82;0.68;;;;;;;3.60;83.54;99708.47;4975986;28;20061;-74
2023/11/28 09:32:51;;;;;;;0.85;0.85;;;;;;;3.56;83.67;99710.25;4958895;28;20046;-74
2023/11/28 09:35:17;;;;;;;1.23;0.95;;;;;;;3.62;83.86;99714.25;4961040;28;20118;-72
2023/11/28 09:37:43;;;;;;;1.10;0.98;;;;;;;3.63;83.36;99721.13;4972542;28;20450;-74
2023/11/28 09:40:09;;;;;;;0.57;0.50;;;;;;;3.55;83.42;99722.00;4978397;28;20026;-74
2023/11/28 09:42:38;;;;;;;2.88;1.00;;;;;;;3.29;83.20;99718.84;4963176;28;20042;-74
2023/11/28 09:45:05;;;;;;;2.15;0.82;;;;;;;3.45;83.24;99714.44;4953501;28;20026;-74
2023/11/28 09:47:38;;;;;;;4.68;1.35;;;;;;;3.39;82.84;99717.63;4979905;28;20034;-74
2023/11/28 09:50:12;;;;;;;1.02;0.63;;;;;;;3.41;82.69;99718.88;4973540;28;20054;-74
2023/11/28 09:52:42;;;;;;;1.10;1.00;;;;;;;3.48;82.38;99718.34;4975054;28;20030;-74
2023/11/28 09:55:08;;;;;;;2.22;0.57;;;;;;;3.64;82.56;99721.88;4976574;28;20449;-74
2023/11/28 09:57:44;;;;;;;0.60;0.52;;;;;;;3.67;82.24;99716.72;4957868;28;20014;-74
2023/11/28 10:00:17;;;;;;;0.95;0.73;;;;;;;3.70;82.01;99725.13;4957035;28;20064;-73
2023/11/28 10:02:42;;;;;;;0.75;0.68;;;;;;;3.61;81.80;99720.69;4967313;28;20115;-74
2023/11/28 10:05:08;;;;;;;0.80;0.75;;;;;;;3.71;81.83;99721.34;4956952;28;20151;-74
2023/11/28 10:07:35;;;;;;;0.98;0.80;;;;;;;3.64;81.22;99713.91;4982167;28;20050;-74
2023/11/28 10:10:08;;;;;;;0.95;0.60;;;;;;;3.58;81.63;99726.66;4955461;28;20027;-74
2023/11/28 10:12:34;;;;;;;0.73;0.52;;;;;;;3.49;81.71;99731.31;4978264;28;20034;-74
2023/11/28 10:14:59;;;;;;;0.98;0.90;;;;;;;3.36;81.47;99729.75;4973970;28;20026;-74
2023/11/28 10:17:25;;;;;;;1.10;1.10;;;;;;;3.55;81.34;99734.53;4973340;28;20038;-74
2023/11/28 10:19:50;;;;;;;0.90;0.80;;;;;;;3.46;81.33;99736.50;4979443;28;20053;-74
2023/11/28 10:22:17;;;;;;;1.25;1.15;;;;;;;3.43;81.32;99727.31;4956311;28;20077;-74
2023/11/28 10:24:42;;;;;;;0.50;0.50;;;;;;;3.62;81.35;99724.88;4958738;28;20030;-74
2023/11/28 10:27:09;;;;;;;1.48;1.17;;;;;;;3.75;80.83;99731.00;4959329;28;20034;-74
2023/11/28 10:29:35;;;;;;;0.95;0.95;;;;;;;3.84;81.07;99731.69;4955301;28;20030;-74
2023/11/28 10:32:00;;;;;;;1.33;1.02;;;;;;;4.03;80.01;99729.22;4941254;28;20024;-74
2023/11/28 10:34:30;;;;;;;0.88;0.82;;;;;;;3.91;80.09;99737.22;4974274;28;20030;-74
2023/11/28 10:36:58;;;;;;;4.25;2.10;;;;;;;3.72;80.75;99730.91;4976210;28;20062;-73
2023/11/28 10:39:25;;;;;;;1.23;1.17;;;;;;;3.89;80.78;99733.34;4959123;28;20022;-74
2023/11/28 10:41:51;;;;;;;0.98;0.73;;;;;;;3.84;80.56;99731.69;4957338;28;20034;-74
2023/11/28 10:44:16;;;;;;;1.05;0.95;;;;;;;3.81;80.56;99728.91;4971275;28;20046;-73
2023/11/28 10:46:42;;;;;;;1.60;1.13;;;;;;;3.84;80.05;99733.56;4980647;28;20410;-73
2023/11/28 10:49:07;;;;;;;0.70;0.70;;;;;;;3.83;80.28;99743.44;4964650;28;20476;-74
2023/11/28 10:51:35;;;;;;;0.55;0.55;;;;;;;3.59;81.28;99743.41;4975635;28;20567;-73
2023/11/28 10:54:08;;;;;;;0.73;0.60;;;;;;;3.77;81.12;99741.31;4978946;28;20027;-74
2023/11/28 10:56:55;;;;;;;1.45;1.27;;;;;;;3.86;80.46;99749.97;4958280;28;20042;-73
2023/11/28 10:59:37;;;;;;;0.80;0.80;;;;;;;3.93;80.21;99753.63;4961483;28;20031;-73
2023/11/28 11:02:06;;;;;;;0.63;0.63;;;;;;;3.91;80.06;99747.09;4952398;28;20045;-73
2023/11/28 11:04:32;;;;;;;0.70;0.70;;;;;;;3.94;79.09;99746.44;4962218;28;20069;-74
2023/11/28 11:06:58;;;;;;;1.20;0.77;;;;;;;3.80;79.13;99759.28;4985085;28;20030;-74
2023/11/28 11:09:25;;;;;;;1.55;1.00;;;;;;;3.65;78.08;99761.50;4960506;28;20402;-73
2023/11/28 11:11:52;;;;;;;1.65;1.13;;;;;;;3.70;78.06;99757.84;4963080;28;20114;-73
2023/11/28 11:14:24;;;;;;;1.58;1.05;;;;;;;3.60;77.65;99761.69;4964677;28;20053;-73
2023/11/28 11:16:55;;;;;;;2.88;1.27;;;;;;;3.25;77.89;99763.16;4936382;28;20086;-73
2023/11/28 11:19:21;;;;;;;0.93;0.93;;;;;;;3.27;77.97;99752.97;4977999;28;20048;-73
2023/11/28 11:21:57;;;;;;;0.98;0.80;;;;;;;3.43;77.74;99761.09;4974737;28;20031;-73
2023/11/28 11:24:25;;;;;;;1.02;0.90;;;;;;;3.46;78.23;99753.28;4963417;28;20417;-73
2023/11/28 11:26:51;;;;;;;0.80;0.80;;;;;;;3.40;78.44;99759.91;4940770;28;20030;-74
2023/11/28 11:29:23;;;;;;;1.38;1.23;;;;;;;3.52;78.58;99761.81;4964371;28;20531;-73
2023/11/28 11:31:57;;;;;;;2.20;1.75;;;;;;;3.57;78.53;99759.72;4979616;28;20085;-73
2023/11/28 11:34:36;;;;;;;1.67;1.30;;;;;;;3.54;78.62;99762.25;4977291;28;20038;-73
2023/11/28 11:37:31;;;;;;;1.95;1.40;;;;;;;3.61;78.77;99754.50;4959871;28;20081;-73
2023/11/28 11:39:59;;;;;;;1.20;1.10;;;;;;;3.67;78.83;99769.94;4968756;28;20033;-73